Brookfield, Wisconsin
Current Conditions -  °F | °C
As of 9:00 AM on Sunday 21 Dec 2014 (Local Time) from KUES Reporting Station
Light Snow Light Snow  
Wind Chill: 23°   Ceiling: 1700
Heat Index: 30°   Visibility: 2mi
Dew Point: 28°   Wind: 7mph
Humidity: 93%   Direction: 160°SSE
Pressure: 30.15"   Gusts: NA
Location:  43.06°N, 88.13°W
Report Text: KUES 211500Z 16006KT 2SM -SN OVC017 M01/M02 A3015
Loading
Personal Weather Stations






























Interactive Weather Map New forecast layout! Learn more

10-Day Weather Forecast

Advertisements
Track Severe Weather on mobile